Time;durP1;ratioP1;P1;durP2;ratioP2;P2;SDS_P1;SDS_P2;PMS_P1;PMS_P2;Temp;Humidity;BMP_temperature;BMP_pressure;BME280_temperature;BME280_humidity;BME280_pressure;Samples;Min_cycle;Max_cycle;Signal;HPM_P1;HPM_P2
2022/01/14 00:01:27;;;;;;;0.20;0.20;;;;;;;;;;4931399;29;20178;-75
2022/01/14 00:03:52;;;;;;;0.30;0.30;;;;;;;;;;4930883;29;20223;-75
2022/01/14 00:06:18;;;;;;;0.40;0.40;;;;;;;;;;4915595;29;20198;-76
2022/01/14 00:08:43;;;;;;;0.30;0.30;;;;;;;;;;4917486;29;20209;-75
2022/01/14 00:11:15;;;;;;;0.40;0.40;;;;;;;;;;4931857;29;20241;-76
2022/01/14 00:14:06;;;;;;;0.30;0.30;;;;;;;;;;4916487;29;20326;-75
2022/01/14 00:16:32;;;;;;;0.33;0.33;;;;;;;;;;4920107;29;20232;-75
2022/01/14 00:18:58;;;;;;;0.30;0.30;;;;;;;;;;4936809;29;20679;-75
2022/01/14 00:21:23;;;;;;;0.20;0.20;;;;;;;;;;4919492;29;20179;-75
2022/01/14 00:23:52;;;;;;;0.10;0.10;;;;;;;;;;4913062;29;20217;-75
2022/01/14 00:34:16;;;;;;;1.80;0.30;;;;;;;;;;4915407;29;20233;-75
2022/01/14 00:36:42;;;;;;;0.30;0.30;;;;;;;;;;4919838;29;20182;-75
2022/01/14 00:39:08;;;;;;;0.30;0.30;;;;;;;;;;4936359;29;20187;-75
2022/01/14 00:41:34;;;;;;;0.30;0.30;;;;;;;;;;4914600;29;20307;-75
2022/01/14 00:44:01;;;;;;;0.40;0.40;;;;;;;;;;4914910;29;20218;-75
2022/01/14 00:46:27;;;;;;;0.87;0.30;;;;;;;;;;4915895;29;20175;-75
2022/01/14 00:48:52;;;;;;;0.30;0.30;;;;;;;;;;4916039;29;20391;-75
2022/01/14 00:51:17;;;;;;;0.13;0.13;;;;;;;;;;4929285;29;20183;-75
2022/01/14 00:53:43;;;;;;;0.20;0.20;;;;;;;;;;4930309;29;20187;-75
2022/01/14 00:56:21;;;;;;;0.20;0.20;;;;;;;;;;4930889;29;20218;-75
2022/01/14 01:01:30;;;;;;;0.10;0.10;;;;;;;;;;4914567;29;20190;-75
2022/01/14 01:03:55;;;;;;;0.20;0.20;;;;;;;;;;4914278;29;20195;-76
2022/01/14 01:06:20;;;;;;;0.30;0.30;;;;;;;;;;4916794;29;20178;-76
2022/01/14 01:08:48;;;;;;;1.80;0.43;;;;;;;;;;4916915;29;20267;-75
2022/01/14 01:11:13;;;;;;;0.63;0.50;;;;;;;;;;4914635;29;20206;-75
2022/01/14 01:13:46;;;;;;;0.30;0.30;;;;;;;;;;4916163;29;20218;-75
2022/01/14 01:16:12;;;;;;;0.53;0.30;;;;;;;;;;4931231;29;20187;-75
2022/01/14 01:18:37;;;;;;;0.20;0.20;;;;;;;;;;4921234;29;20205;-75
2022/01/14 01:21:02;;;;;;;0.10;0.10;;;;;;;;;;4915070;29;20265;-76
2022/01/14 01:23:28;;;;;;;0.20;0.20;;;;;;;;;;4929654;29;20226;-75
2022/01/14 01:26:00;;;;;;;0.30;0.30;;;;;;;;;;4915359;29;20190;-76
2022/01/14 01:28:26;;;;;;;0.17;0.17;;;;;;;;;;4930681;29;20285;-75
2022/01/14 01:31:05;;;;;;;0.20;0.20;;;;;;;;;;4914591;29;20204;-75
2022/01/14 01:33:31;;;;;;;0.30;0.30;;;;;;;;;;4916128;29;20204;-76
2022/01/14 01:35:56;;;;;;;0.43;0.30;;;;;;;;;;4916988;29;20277;-76
2022/01/14 01:38:22;;;;;;;0.20;0.20;;;;;;;;;;4912153;29;20221;-76
2022/01/14 01:40:48;;;;;;;0.30;0.27;;;;;;;;;;4929464;29;20179;-76
2022/01/14 01:43:13;;;;;;;0.10;0.10;;;;;;;;;;4915065;29;20199;-75
2022/01/14 01:45:39;;;;;;;0.30;0.27;;;;;;;;;;4927318;29;20183;-76
2022/01/14 01:48:04;;;;;;;0.50;0.50;;;;;;;;;;4929518;29;20591;-76
2022/01/14 01:50:32;;;;;;;0.20;0.20;;;;;;;;;;4929355;29;20183;-75
2022/01/14 01:52:57;;;;;;;0.30;0.30;;;;;;;;;;4914819;29;20185;-75
2022/01/14 01:55:23;;;;;;;0.30;0.30;;;;;;;;;;4916665;29;20179;-75
2022/01/14 01:57:49;;;;;;;0.70;0.53;;;;;;;;;;4914702;29;20237;-76
2022/01/14 02:00:16;;;;;;;0.33;0.33;;;;;;;;;;4917077;29;20182;-76
2022/01/14 02:02:41;;;;;;;1.00;0.43;;;;;;;;;;4913541;29;20182;-75
2022/01/14 02:05:07;;;;;;;0.23;0.13;;;;;;;;;;4928342;29;20326;-76
2022/01/14 02:07:32;;;;;;;0.33;0.33;;;;;;;;;;4931607;29;20183;-75
2022/01/14 02:09:59;;;;;;;0.20;0.20;;;;;;;;;;4911862;29;20203;-75
2022/01/14 02:12:25;;;;;;;0.47;0.43;;;;;;;;;;4914004;29;20216;-75
2022/01/14 02:15:06;;;;;;;0.30;0.30;;;;;;;;;;4914787;29;20193;-75
2022/01/14 02:17:52;;;;;;;0.40;0.40;;;;;;;;;;4915120;29;20186;-76
2022/01/14 02:23:04;;;;;;;0.63;0.30;;;;;;;;;;4914098;29;20221;-75
2022/01/14 02:25:30;;;;;;;0.23;0.23;;;;;;;;;;4928544;29;20436;-75
2022/01/14 02:27:58;;;;;;;0.40;0.40;;;;;;;;;;4913862;29;20251;-76
2022/01/14 02:30:24;;;;;;;0.20;0.20;;;;;;;;;;4928625;29;20186;-76
2022/01/14 02:32:49;;;;;;;0.40;0.40;;;;;;;;;;4929601;29;20190;-76
2022/01/14 02:35:15;;;;;;;0.50;0.40;;;;;;;;;;4912585;29;20187;-76
2022/01/14 02:37:40;;;;;;;0.37;0.37;;;;;;;;;;4922322;29;20314;-75
2022/01/14 02:40:05;;;;;;;0.73;0.20;;;;;;;;;;4911370;29;20194;-75
2022/01/14 02:42:31;;;;;;;0.30;0.30;;;;;;;;;;4928648;29;20178;-75
2022/01/14 02:45:01;;;;;;;0.33;0.27;;;;;;;;;;4928553;29;20214;-76
2022/01/14 02:47:27;;;;;;;0.30;0.30;;;;;;;;;;4928763;29;20186;-76
2022/01/14 02:49:53;;;;;;;0.20;0.20;;;;;;;;;;4928401;28;20186;-76
2022/01/14 02:52:27;;;;;;;0.30;0.20;;;;;;;;;;4911843;29;20183;-76
2022/01/14 02:55:13;;;;;;;0.20;0.20;;;;;;;;;;4927714;29;20198;-76
2022/01/14 02:57:38;;;;;;;0.23;0.23;;;;;;;;;;4913054;29;20323;-76
2022/01/14 03:00:04;;;;;;;0.53;0.53;;;;;;;;;;4928629;29;20202;-76
2022/01/14 03:02:29;;;;;;;0.60;0.43;;;;;;;;;;4928552;29;20209;-76
2022/01/14 03:04:55;;;;;;;0.63;0.50;;;;;;;;;;4928529;29;20295;-76
2022/01/14 03:07:20;;;;;;;0.27;0.27;;;;;;;;;;4929342;29;20179;-76
2022/01/14 03:09:45;;;;;;;0.30;0.30;;;;;;;;;;4928547;29;20182;-75
2022/01/14 03:12:11;;;;;;;0.40;0.40;;;;;;;;;;4917543;29;20182;-76
2022/01/14 03:14:36;;;;;;;0.40;0.40;;;;;;;;;;4929141;29;20246;-76
2022/01/14 03:17:02;;;;;;;0.30;0.30;;;;;;;;;;4914029;29;20179;-75
2022/01/14 03:19:28;;;;;;;0.23;0.23;;;;;;;;;;4919838;29;20186;-76
2022/01/14 03:22:05;;;;;;;0.10;0.10;;;;;;;;;;4928501;29;20179;-75
2022/01/14 03:27:01;;;;;;;0.20;0.20;;;;;;;;;;4916774;29;20174;-76
2022/01/14 03:29:26;;;;;;;0.40;0.40;;;;;;;;;;4932265;29;20181;-76
2022/01/14 03:31:52;;;;;;;0.30;0.30;;;;;;;;;;4915884;29;20213;-76
2022/01/14 03:34:17;;;;;;;0.27;0.27;;;;;;;;;;4932313;29;20299;-76
2022/01/14 03:36:42;;;;;;;0.67;0.30;;;;;;;;;;4930257;29;20182;-76
2022/01/14 03:39:08;;;;;;;0.37;0.37;;;;;;;;;;4918003;29;20184;-76
2022/01/14 03:41:33;;;;;;;0.63;0.63;;;;;;;;;;4917518;29;20182;-76
2022/01/14 03:43:58;;;;;;;3.07;1.63;;;;;;;;;;4932016;29;20223;-76
2022/01/14 03:46:23;;;;;;;0.73;0.57;;;;;;;;;;4918484;29;20175;-76
2022/01/14 03:48:52;;;;;;;0.63;0.50;;;;;;;;;;4915792;29;20178;-76
2022/01/14 03:51:17;;;;;;;0.60;0.60;;;;;;;;;;4918829;29;20198;-76
2022/01/14 03:53:42;;;;;;;0.30;0.30;;;;;;;;;;4931226;29;20206;-76
2022/01/14 03:56:08;;;;;;;0.40;0.40;;;;;;;;;;4930670;29;20179;-75
2022/01/14 03:58:33;;;;;;;0.37;0.37;;;;;;;;;;4916479;29;20231;-76
2022/01/14 04:00:58;;;;;;;0.20;0.20;;;;;;;;;;4930811;29;20282;-76
2022/01/14 04:03:23;;;;;;;0.27;0.27;;;;;;;;;;4930978;29;20190;-76
2022/01/14 04:05:48;;;;;;;1.80;0.80;;;;;;;;;;4917245;29;20266;-76
2022/01/14 04:08:14;;;;;;;1.07;0.97;;;;;;;;;;4916259;29;20199;-76
2022/01/14 04:10:39;;;;;;;0.33;0.33;;;;;;;;;;4931104;29;20175;-76
2022/01/14 04:13:18;;;;;;;0.70;0.40;;;;;;;;;;4931548;29;20190;-75
2022/01/14 04:15:45;;;;;;;0.30;0.30;;;;;;;;;;4931147;29;20181;-76
2022/01/14 04:18:13;;;;;;;0.40;0.40;;;;;;;;;;4924580;29;20183;-76
2022/01/14 04:20:39;;;;;;;0.30;0.30;;;;;;;;;;4917964;29;20278;-76
2022/01/14 04:23:05;;;;;;;0.83;0.60;;;;;;;;;;4916265;29;20262;-76
2022/01/14 04:25:31;;;;;;;3.67;2.00;;;;;;;;;;4908304;29;20412;-76
2022/01/14 04:27:56;;;;;;;6.87;2.87;;;;;;;;;;4915491;29;20183;-76
2022/01/14 04:30:22;;;;;;;1.40;1.30;;;;;;;;;;4916343;29;20175;-76
2022/01/14 04:32:47;;;;;;;3.77;1.63;;;;;;;;;;4920021;29;20175;-76
2022/01/14 04:35:13;;;;;;;3.90;2.20;;;;;;;;;;4916572;29;20183;-76
2022/01/14 04:37:38;;;;;;;2.87;2.03;;;;;;;;;;4918049;29;20376;-76
2022/01/14 04:40:04;;;;;;;2.47;1.93;;;;;;;;;;4922011;29;20250;-76
2022/01/14 04:42:29;;;;;;;2.23;1.43;;;;;;;;;;4931121;29;20186;-76
2022/01/14 04:44:56;;;;;;;2.47;1.77;;;;;;;;;;4915780;29;20199;-75
2022/01/14 04:47:44;;;;;;;1.00;0.97;;;;;;;;;;4915204;29;20175;-76
2022/01/14 04:50:10;;;;;;;3.33;1.50;;;;;;;;;;4913515;29;20183;-76
2022/01/14 04:52:35;;;;;;;2.33;1.67;;;;;;;;;;4916090;29;20487;-76
2022/01/14 04:55:00;;;;;;;1.63;1.20;;;;;;;;;;4931520;29;20275;-76
2022/01/14 04:57:26;;;;;;;0.85;0.80;;;;;;;;;;4913548;29;20231;-76
2022/01/14 04:59:51;;;;;;;1.10;1.00;;;;;;;;;;4915661;29;20250;-76
2022/01/14 05:02:16;;;;;;;2.73;1.23;;;;;;;;;;4915256;29;20186;-76
2022/01/14 05:04:43;;;;;;;0.83;0.83;;;;;;;;;;4930555;29;20217;-76
2022/01/14 05:07:13;;;;;;;1.97;1.50;;;;;;;;;;4914887;29;20178;-75
2022/01/14 05:09:43;;;;;;;0.87;0.80;;;;;;;;;;4930722;29;20206;-76
2022/01/14 05:12:10;;;;;;;2.67;0.80;;;;;;;;;;4915009;29;20179;-76
2022/01/14 05:14:36;;;;;;;1.10;0.93;;;;;;;;;;4914576;29;20431;-76
2022/01/14 05:17:01;;;;;;;1.00;0.97;;;;;;;;;;4917069;29;20187;-76
2022/01/14 05:19:26;;;;;;;1.20;0.90;;;;;;;;;;4919801;29;20179;-75
2022/01/14 05:21:52;;;;;;;1.13;0.87;;;;;;;;;;4919979;29;20186;-76
2022/01/14 05:24:17;;;;;;;2.60;1.20;;;;;;;;;;4918341;29;20250;-76
2022/01/14 05:26:42;;;;;;;1.70;1.20;;;;;;;;;;4929893;29;20188;-76
2022/01/14 05:29:07;;;;;;;0.90;0.90;;;;;;;;;;4914799;29;20178;-76
2022/01/14 05:32:09;;;;;;;1.50;1.00;;;;;;;;;;4929832;29;20182;-76
2022/01/14 05:34:35;;;;;;;1.90;1.30;;;;;;;;;;4926163;29;20204;-76
2022/01/14 05:37:01;;;;;;;2.77;2.40;;;;;;;;;;4915886;29;20191;-76
2022/01/14 05:39:26;;;;;;;2.37;2.07;;;;;;;;;;4915560;29;20194;-76
2022/01/14 05:41:52;;;;;;;1.13;1.07;;;;;;;;;;4928871;29;20234;-76
2022/01/14 05:44:18;;;;;;;3.93;2.43;;;;;;;;;;4930071;29;20206;-76
2022/01/14 05:46:43;;;;;;;2.17;1.90;;;;;;;;;;4929813;29;20183;-76
2022/01/14 05:49:08;;;;;;;2.70;1.93;;;;;;;;;;4929655;29;20175;-75
2022/01/14 05:51:33;;;;;;;0.93;0.90;;;;;;;;;;4929998;29;20171;-76
2022/01/14 05:53:59;;;;;;;1.70;1.50;;;;;;;;;;4929231;29;20222;-75
2022/01/14 05:56:24;;;;;;;1.43;1.20;;;;;;;;;;4913374;29;20183;-76
2022/01/14 05:58:50;;;;;;;1.40;1.30;;;;;;;;;;4927497;29;20241;-75
2022/01/14 06:01:15;;;;;;;2.30;1.53;;;;;;;;;;4914556;29;20202;-75
2022/01/14 06:03:41;;;;;;;2.47;2.27;;;;;;;;;;4914797;29;20203;-76
2022/01/14 06:06:08;;;;;;;3.20;2.33;;;;;;;;;;4914599;29;20257;-75
2022/01/14 06:08:34;;;;;;;4.43;3.10;;;;;;;;;;4913531;29;20182;-76
2022/01/14 06:10:59;;;;;;;3.37;2.63;;;;;;;;;;4928797;28;20183;-75
2022/01/14 06:13:24;;;;;;;2.57;2.10;;;;;;;;;;5102735;23;20265;-75
2022/01/14 06:15:49;;;;;;;2.43;1.90;;;;;;;;;;4916495;29;20182;-76
2022/01/14 06:20:49;;;;;;;2.17;1.93;;;;;;;;;;5068481;23;20293;-76
2022/01/14 06:23:15;;;;;;;1.83;1.60;;;;;;;;;;4919220;29;20182;-76
2022/01/14 06:25:40;;;;;;;1.80;1.70;;;;;;;;;;4916803;29;20190;-76
2022/01/14 06:28:05;;;;;;;4.33;3.33;;;;;;;;;;4922032;29;20193;-76
2022/01/14 06:30:30;;;;;;;2.60;2.40;;;;;;;;;;4916457;29;20186;-76
2022/01/14 06:32:56;;;;;;;2.53;2.33;;;;;;;;;;4916084;29;20178;-76
2022/01/14 06:35:22;;;;;;;3.70;3.10;;;;;;;;;;4916958;29;20214;-76
2022/01/14 06:37:47;;;;;;;3.30;2.77;;;;;;;;;;4917649;29;20186;-76
2022/01/14 06:40:12;;;;;;;3.13;2.43;;;;;;;;;;4934355;29;20194;-76
2022/01/14 06:42:38;;;;;;;4.47;3.07;;;;;;;;;;4914394;29;20236;-76
2022/01/14 06:45:03;;;;;;;7.93;4.50;;;;;;;;;;4927583;29;20206;-75
2022/01/14 06:47:30;;;;;;;10.37;7.97;;;;;;;;;;4927164;29;20270;-76
2022/01/14 06:49:55;;;;;;;10.30;7.40;;;;;;;;;;4923786;29;20520;-75
2022/01/14 06:52:20;;;;;;;6.83;4.57;;;;;;;;;;4915758;29;20182;-76
2022/01/14 06:54:47;;;;;;;4.20;3.33;;;;;;;;;;4928916;29;20242;-76
2022/01/14 06:57:12;;;;;;;4.90;4.03;;;;;;;;;;4918690;29;20221;-76
2022/01/14 06:59:37;;;;;;;5.63;3.67;;;;;;;;;;4916055;29;20224;-75
2022/01/14 07:02:03;;;;;;;6.43;4.57;;;;;;;;;;4914076;29;20193;-76
2022/01/14 07:04:29;;;;;;;4.20;3.47;;;;;;;;;;4918199;29;20242;-76
2022/01/14 07:06:54;;;;;;;5.60;4.20;;;;;;;;;;4926834;29;20256;-76
2022/01/14 07:09:19;;;;;;;6.73;4.83;;;;;;;;;;4915333;29;20272;-76
2022/01/14 07:11:51;;;;;;;6.53;3.90;;;;;;;;;;4914209;29;20178;-76
2022/01/14 07:14:17;;;;;;;4.73;3.50;;;;;;;;;;4932761;29;20245;-76
2022/01/14 07:16:42;;;;;;;7.27;4.23;;;;;;;;;;4925458;29;20182;-76
2022/01/14 07:19:07;;;;;;;4.57;3.37;;;;;;;;;;4933214;29;20309;-76
2022/01/14 07:21:35;;;;;;;8.00;5.00;;;;;;;;;;4932717;29;20182;-76
2022/01/14 07:24:01;;;;;;;4.87;4.37;;;;;;;;;;4914422;29;20205;-76
2022/01/14 07:26:26;;;;;;;8.47;6.60;;;;;;;;;;4918849;29;20253;-76
2022/01/14 07:28:51;;;;;;;16.87;11.03;;;;;;;;;;4911683;29;20192;-76
2022/01/14 07:31:16;;;;;;;13.00;8.67;;;;;;;;;;4914194;29;20311;-76
2022/01/14 07:33:41;;;;;;;9.50;6.80;;;;;;;;;;4932831;29;20201;-75
2022/01/14 07:36:07;;;;;;;5.63;4.40;;;;;;;;;;4915178;29;20194;-76
2022/01/14 07:38:32;;;;;;;6.73;3.60;;;;;;;;;;4908566;29;20187;-75
2022/01/14 07:40:57;;;;;;;8.60;4.53;;;;;;;;;;4922627;29;20186;-76
2022/01/14 07:43:22;;;;;;;6.70;4.43;;;;;;;;;;4914552;29;20246;-76
2022/01/14 07:45:47;;;;;;;4.23;3.17;;;;;;;;;;4931459;29;20186;-76
2022/01/14 07:48:13;;;;;;;9.60;3.47;;;;;;;;;;4916558;29;20174;-75
2022/01/14 07:50:38;;;;;;;4.10;2.67;;;;;;;;;;4912962;29;20178;-75
2022/01/14 07:53:03;;;;;;;5.17;2.63;;;;;;;;;;4931686;29;20202;-76
2022/01/14 07:55:28;;;;;;;5.13;2.00;;;;;;;;;;4931367;29;20181;-76
2022/01/14 07:57:54;;;;;;;2.83;2.10;;;;;;;;;;4909403;29;20210;-76
2022/01/14 08:00:19;;;;;;;6.80;3.23;;;;;;;;;;4914009;29;20186;-76
2022/01/14 08:02:44;;;;;;;2.83;2.13;;;;;;;;;;4908463;29;20190;-75
2022/01/14 08:05:10;;;;;;;3.17;1.47;;;;;;;;;;4911774;29;20214;-76
2022/01/14 08:07:44;;;;;;;4.37;1.67;;;;;;;;;;4931855;29;20207;-76
2022/01/14 08:10:09;;;;;;;1.30;1.07;;;;;;;;;;4908270;29;20202;-76
2022/01/14 08:12:36;;;;;;;2.13;1.20;;;;;;;;;;4917050;29;20205;-76
2022/01/14 08:15:01;;;;;;;2.30;1.53;;;;;;;;;;4916944;29;20281;-76
2022/01/14 08:17:27;;;;;;;1.60;1.37;;;;;;;;;;4929994;29;20276;-76
2022/01/14 08:19:52;;;;;;;1.53;1.00;;;;;;;;;;5037229;23;20345;-76
2022/01/14 08:22:17;;;;;;;2.33;1.20;;;;;;;;;;4963079;28;20223;-76
2022/01/14 08:24:42;;;;;;;2.63;1.27;;;;;;;;;;4953828;28;20211;-75
2022/01/14 08:27:07;;;;;;;2.23;1.30;;;;;;;;;;4950441;28;20182;-76
2022/01/14 08:29:33;;;;;;;3.23;1.07;;;;;;;;;;4953688;28;20216;-75
2022/01/14 08:31:58;;;;;;;2.57;1.03;;;;;;;;;;4956607;28;20177;-76
2022/01/14 08:34:24;;;;;;;2.40;1.37;;;;;;;;;;4949759;28;20204;-76
2022/01/14 08:36:50;;;;;;;2.97;1.13;;;;;;;;;;4950366;28;20185;-76
2022/01/14 08:39:15;;;;;;;4.47;2.10;;;;;;;;;;4955728;28;20174;-76
2022/01/14 08:41:40;;;;;;;3.53;1.73;;;;;;;;;;4949989;28;20189;-75
2022/01/14 08:44:06;;;;;;;4.57;1.77;;;;;;;;;;4951412;28;20197;-76
2022/01/14 08:46:31;;;;;;;5.70;2.30;;;;;;;;;;4950509;28;20182;-76
2022/01/14 08:48:59;;;;;;;2.50;1.30;;;;;;;;;;4958499;28;20188;-76
2022/01/14 08:51:27;;;;;;;2.67;1.40;;;;;;;;;;4944799;28;20196;-76
2022/01/14 08:53:52;;;;;;;2.47;1.27;;;;;;;;;;4947495;28;20182;-76
2022/01/14 08:56:17;;;;;;;2.87;1.50;;;;;;;;;;4955901;28;20185;-78
2022/01/14 08:58:42;;;;;;;4.37;2.00;;;;;;;;;;4955139;28;20441;-79
2022/01/14 09:01:07;;;;;;;4.13;1.40;;;;;;;;;;4957559;28;20192;-80
2022/01/14 09:03:33;;;;;;;2.17;1.40;;;;;;;;;;4952921;28;20205;-80
2022/01/14 09:05:58;;;;;;;2.80;1.70;;;;;;;;;;4961421;28;20196;-80
2022/01/14 09:08:23;;;;;;;1.10;0.90;;;;;;;;;;4946913;28;20228;-79
2022/01/14 09:10:48;;;;;;;1.00;0.60;;;;;;;;;;4949614;28;20185;-79
2022/01/14 09:13:14;;;;;;;0.50;0.50;;;;;;;;;;4955888;28;20181;-79
2022/01/14 09:15:39;;;;;;;0.70;0.43;;;;;;;;;;4953946;28;20959;-79
2022/01/14 09:18:04;;;;;;;2.03;0.70;;;;;;;;;;4956341;28;20172;-79
2022/01/14 09:20:29;;;;;;;1.23;0.80;;;;;;;;;;4962147;28;20225;-79
2022/01/14 09:22:57;;;;;;;2.77;0.53;;;;;;;;;;4956585;28;20193;-76
2022/01/14 09:25:23;;;;;;;1.23;0.77;;;;;;;;;;4957326;28;20213;-74
2022/01/14 09:27:50;;;;;;;0.60;0.50;;;;;;;;;;4949376;28;20480;-73
2022/01/14 09:30:16;;;;;;;1.93;0.70;;;;;;;;;;4948497;28;20182;-74
2022/01/14 09:32:41;;;;;;;0.50;0.50;;;;;;;;;;4948961;28;20185;-73
2022/01/14 09:35:07;;;;;;;1.17;0.70;;;;;;;;;;4958813;28;20177;-74
2022/01/14 09:37:33;;;;;;;1.37;0.90;;;;;;;;;;4945478;28;20189;-74
2022/01/14 09:39:58;;;;;;;1.20;0.73;;;;;;;;;;4956707;28;20196;-73
2022/01/14 09:42:24;;;;;;;0.53;0.47;;;;;;;;;;4947012;28;20185;-74
2022/01/14 09:44:49;;;;;;;3.10;0.73;;;;;;;;;;4949826;28;20221;-74
2022/01/14 09:47:18;;;;;;;1.00;1.00;;;;;;;;;;4947964;28;20308;-73
2022/01/14 09:49:44;;;;;;;1.27;0.97;;;;;;;;;;4961696;28;20227;-73
2022/01/14 09:52:10;;;;;;;0.73;0.50;;;;;;;;;;4947948;28;20213;-73
2022/01/14 09:54:37;;;;;;;0.70;0.70;;;;;;;;;;4952624;28;20178;-73
2022/01/14 09:57:02;;;;;;;0.60;0.60;;;;;;;;;;4969375;28;20189;-73
2022/01/14 09:59:27;;;;;;;1.57;1.10;;;;;;;;;;4939325;28;20188;-73
2022/01/14 10:01:52;;;;;;;0.60;0.60;;;;;;;;;;4942074;29;20232;-73
2022/01/14 10:04:21;;;;;;;0.70;0.60;;;;;;;;;;4944276;29;20215;-73
2022/01/14 10:06:54;;;;;;;0.93;0.87;;;;;;;;;;4941739;29;20189;-73
2022/01/14 10:09:33;;;;;;;0.50;0.50;;;;;;;;;;4950558;28;20241;-73
2022/01/14 10:12:00;;;;;;;1.30;1.00;;;;;;;;;;4947195;28;20182;-73
2022/01/14 10:14:25;;;;;;;1.00;0.90;;;;;;;;;;4953664;28;20189;-73
2022/01/14 10:16:54;;;;;;;1.30;0.80;;;;;;;;;;4950044;28;20193;-73
2022/01/14 10:19:20;;;;;;;0.87;0.83;;;;;;;;;;4968004;28;20235;-73
2022/01/14 10:21:45;;;;;;;0.50;0.50;;;;;;;;;;4948118;28;20275;-74
2022/01/14 10:24:10;;;;;;;1.37;0.93;;;;;;;;;;4944861;28;20209;-74
2022/01/14 10:26:46;;;;;;;2.67;0.70;;;;;;;;;;4949352;29;20174;-73
2022/01/14 10:29:11;;;;;;;0.40;0.40;;;;;;;;;;4943080;28;20184;-73
2022/01/14 10:31:37;;;;;;;2.17;0.70;;;;;;;;;;4947064;29;20181;-73
2022/01/14 10:34:06;;;;;;;0.67;0.60;;;;;;;;;;4945698;28;20251;-73
2022/01/14 10:36:31;;;;;;;0.77;0.50;;;;;;;;;;4944902;28;20190;-73
2022/01/14 10:38:56;;;;;;;1.60;1.50;;;;;;;;;;4945127;28;20273;-74
2022/01/14 10:41:27;;;;;;;1.97;0.60;;;;;;;;;;4948903;28;20174;-73
2022/01/14 10:43:52;;;;;;;1.93;0.40;;;;;;;;;;4957004;28;20217;-73
2022/01/14 10:46:27;;;;;;;0.67;0.67;;;;;;;;;;4956751;28;20177;-73
2022/01/14 10:48:54;;;;;;;2.23;1.00;;;;;;;;;;4951261;28;20256;-73
2022/01/14 10:51:19;;;;;;;0.60;0.60;;;;;;;;;;4950624;28;20263;-75
2022/01/14 10:53:53;;;;;;;0.87;0.80;;;;;;;;;;4944422;28;20265;-74
2022/01/14 10:56:19;;;;;;;0.30;0.30;;;;;;;;;;4967763;28;20181;-73
2022/01/14 10:58:46;;;;;;;0.87;0.50;;;;;;;;;;4952249;28;20192;-73
2022/01/14 11:01:13;;;;;;;0.80;0.60;;;;;;;;;;4966219;28;20224;-73
2022/01/14 11:03:39;;;;;;;0.60;0.60;;;;;;;;;;4949899;28;20287;-73
2022/01/14 11:06:21;;;;;;;0.83;0.57;;;;;;;;;;4968757;28;20176;-73
2022/01/14 11:08:50;;;;;;;0.33;0.33;;;;;;;;;;4948545;28;20181;-73
2022/01/14 11:11:15;;;;;;;0.50;0.50;;;;;;;;;;4942759;28;20197;-73
2022/01/14 11:13:40;;;;;;;0.30;0.30;;;;;;;;;;4959307;28;20228;-73
2022/01/14 11:16:06;;;;;;;0.67;0.63;;;;;;;;;;4949840;28;20185;-73
2022/01/14 11:18:31;;;;;;;0.20;0.20;;;;;;;;;;4952993;28;20180;-73
2022/01/14 11:23:40;;;;;;;0.53;0.40;;;;;;;;;;4949456;28;20208;-72
2022/01/14 11:26:11;;;;;;;0.50;0.50;;;;;;;;;;4961281;28;20170;-73
2022/01/14 11:28:38;;;;;;;0.50;0.50;;;;;;;;;;4952624;28;20172;-73
2022/01/14 11:31:22;;;;;;;0.30;0.30;;;;;;;;;;4936877;28;20240;-72
2022/01/14 11:33:47;;;;;;;0.20;0.20;;;;;;;;;;4949975;28;20276;-73
2022/01/14 11:36:12;;;;;;;0.83;0.50;;;;;;;;;;4958872;28;20186;-73
2022/01/14 11:38:41;;;;;;;0.50;0.30;;;;;;;;;;4952392;28;20176;-73
2022/01/14 11:41:07;;;;;;;2.50;2.27;;;;;;;;;;4939273;28;20186;-73
2022/01/14 11:43:39;;;;;;;0.40;0.27;;;;;;;;;;4946524;28;20174;-73
2022/01/14 11:46:05;;;;;;;0.10;0.10;;;;;;;;;;4959731;28;20177;-72
2022/01/14 11:48:36;;;;;;;0.50;0.50;;;;;;;;;;4948047;28;20261;-72
2022/01/14 11:51:03;;;;;;;0.10;0.10;;;;;;;;;;4956430;28;20178;-72
2022/01/14 11:53:33;;;;;;;0.20;0.20;;;;;;;;;;4952529;28;20188;-72
2022/01/14 11:55:58;;;;;;;0.70;0.70;;;;;;;;;;4945327;28;20186;-72
2022/01/14 11:58:23;;;;;;;0.93;0.30;;;;;;;;;;4969353;28;20289;-72
2022/01/14 12:00:49;;;;;;;0.20;0.20;;;;;;;;;;4955728;28;20177;-72
2022/01/14 12:03:26;;;;;;;0.38;0.38;;;;;;;;;;4949185;28;20204;-72
2022/01/14 12:05:53;;;;;;;0.63;0.50;;;;;;;;;;4967580;28;20189;-72
2022/01/14 12:08:28;;;;;;;1.80;0.50;;;;;;;;;;4967606;28;20192;-72
2022/01/14 12:10:55;;;;;;;0.50;0.40;;;;;;;;;;4950540;28;20236;-73
2022/01/14 12:13:27;;;;;;;0.20;0.20;;;;;;;;;;4952507;29;20173;-73
2022/01/14 12:16:02;;;;;;;0.53;0.53;;;;;;;;;;4950609;28;20217;-73
2022/01/14 12:18:45;;;;;;;0.30;0.30;;;;;;;;;;4962757;28;20172;-72
2022/01/14 12:21:11;;;;;;;9.93;9.33;;;;;;;;;;4963196;28;20229;-72
2022/01/14 12:23:36;;;;;;;0.67;0.60;;;;;;;;;;4950541;28;20205;-72
2022/01/14 12:26:15;;;;;;;1.03;0.80;;;;;;;;;;4948978;28;20224;-72
2022/01/14 12:28:41;;;;;;;0.30;0.30;;;;;;;;;;4956992;28;20173;-73
2022/01/14 12:31:06;;;;;;;0.20;0.20;;;;;;;;;;4949290;28;20178;-72
2022/01/14 12:33:49;;;;;;;0.40;0.40;;;;;;;;;;4963549;28;20326;-73
2022/01/14 12:36:15;;;;;;;0.30;0.30;;;;;;;;;;4976849;28;20216;-72
2022/01/14 12:38:41;;;;;;;0.50;0.30;;;;;;;;;;4960903;28;20206;-72
2022/01/14 12:41:13;;;;;;;0.30;0.27;;;;;;;;;;4954210;28;20185;-73
2022/01/14 12:43:45;;;;;;;0.20;0.20;;;;;;;;;;4959599;28;20212;-72
2022/01/14 12:46:24;;;;;;;0.67;0.60;;;;;;;;;;4945337;28;20201;-72
2022/01/14 12:48:56;;;;;;;0.30;0.30;;;;;;;;;;4953995;28;20201;-73
2022/01/14 12:51:21;;;;;;;0.17;0.17;;;;;;;;;;4946663;28;20182;-72
2022/01/14 12:53:51;;;;;;;0.10;0.10;;;;;;;;;;4975983;28;20189;-73
2022/01/14 12:56:18;;;;;;;0.37;0.23;;;;;;;;;;4951435;28;20194;-73
2022/01/14 12:58:57;;;;;;;0.30;0.30;;;;;;;;;;4961125;28;20202;-73
2022/01/14 13:01:31;;;;;;;0.23;0.23;;;;;;;;;;4954111;28;20224;-73
2022/01/14 13:03:57;;;;;;;0.40;0.40;;;;;;;;;;4950154;28;20210;-73
2022/01/14 13:06:23;;;;;;;0.20;0.20;;;;;;;;;;4953663;28;20212;-73
2022/01/14 13:08:54;;;;;;;0.40;0.40;;;;;;;;;;4941548;29;20292;-73
2022/01/14 13:11:19;;;;;;;1.00;0.27;;;;;;;;;;4951095;28;20181;-73
2022/01/14 13:13:45;;;;;;;0.30;0.30;;;;;;;;;;4949021;28;20205;-72
2022/01/14 13:16:10;;;;;;;0.27;0.27;;;;;;;;;;4946597;28;20181;-73
2022/01/14 13:18:44;;;;;;;0.43;0.43;;;;;;;;;;4950476;28;20416;-73
2022/01/14 13:21:10;;;;;;;0.57;0.50;;;;;;;;;;4943641;29;20225;-73
2022/01/14 13:23:35;;;;;;;1.10;0.80;;;;;;;;;;4967001;28;20201;-73
2022/01/14 13:26:01;;;;;;;0.80;0.80;;;;;;;;;;4950211;28;20559;-73
2022/01/14 13:28:26;;;;;;;1.23;0.50;;;;;;;;;;4942811;28;20182;-73
2022/01/14 13:30:51;;;;;;;0.50;0.50;;;;;;;;;;4958381;28;20278;-73
2022/01/14 13:33:17;;;;;;;0.50;0.50;;;;;;;;;;4947859;28;20224;-73
2022/01/14 13:35:44;;;;;;;0.60;0.60;;;;;;;;;;4940976;29;20183;-73
2022/01/14 13:38:09;;;;;;;0.60;0.60;;;;;;;;;;4963647;28;20192;-73
2022/01/14 13:40:42;;;;;;;0.35;0.35;;;;;;;;;;4958685;28;20200;-73
2022/01/14 13:43:24;;;;;;;0.40;0.40;;;;;;;;;;4968703;28;20181;-73
2022/01/14 13:45:52;;;;;;;3.93;0.60;;;;;;;;;;4958228;28;20184;-72
2022/01/14 13:48:24;;;;;;;0.93;0.43;;;;;;;;;;4952900;28;20197;-72
2022/01/14 13:51:01;;;;;;;1.87;1.07;;;;;;;;;;4966308;28;20173;-72
2022/01/14 13:53:33;;;;;;;1.00;0.90;;;;;;;;;;4955841;28;20250;-72
2022/01/14 13:56:04;;;;;;;1.47;1.30;;;;;;;;;;4949530;28;20263;-73
2022/01/14 13:58:30;;;;;;;5.57;2.77;;;;;;;;;;4940200;28;20179;-72
2022/01/14 14:00:57;;;;;;;0.60;0.60;;;;;;;;;;4947709;28;20183;-72
2022/01/14 14:03:25;;;;;;;0.30;0.30;;;;;;;;;;4943112;28;20186;-72
2022/01/14 14:05:56;;;;;;;1.13;0.80;;;;;;;;;;4968131;28;20198;-73
2022/01/14 14:08:37;;;;;;;0.80;0.80;;;;;;;;;;4955916;28;20273;-72
2022/01/14 14:16:40;;;;;;;1.37;1.00;;;;;;;;;;4953240;28;20316;-72
2022/01/14 14:19:05;;;;;;;0.97;0.80;;;;;;;;;;4959122;28;20252;-72
2022/01/14 14:21:33;;;;;;;2.53;2.33;;;;;;;;;;4949206;28;20232;-72
2022/01/14 14:23:59;;;;;;;2.13;1.20;;;;;;;;;;4946128;28;20237;-72
2022/01/14 14:26:29;;;;;;;1.63;0.70;;;;;;;;;;4958011;28;20197;-72
2022/01/14 14:28:54;;;;;;;1.40;1.07;;;;;;;;;;4959134;28;20181;-72
2022/01/14 14:31:26;;;;;;;0.87;0.70;;;;;;;;;;4955319;28;20194;-72
2022/01/14 14:33:52;;;;;;;3.97;0.60;;;;;;;;;;4955851;28;20211;-72
2022/01/14 14:36:18;;;;;;;1.90;0.80;;;;;;;;;;4942246;28;20186;-72
2022/01/14 14:38:43;;;;;;;0.77;0.60;;;;;;;;;;4946667;28;20182;-72
2022/01/14 14:41:08;;;;;;;2.80;1.03;;;;;;;;;;4945709;29;20192;-72
2022/01/14 14:43:34;;;;;;;0.80;0.80;;;;;;;;;;4944063;29;20180;-72
2022/01/14 14:45:59;;;;;;;1.13;1.00;;;;;;;;;;4964576;28;20186;-72
2022/01/14 14:48:24;;;;;;;0.97;0.80;;;;;;;;;;4948532;29;20207;-72
2022/01/14 14:50:49;;;;;;;2.33;1.27;;;;;;;;;;4941717;29;20182;-72
2022/01/14 14:53:14;;;;;;;0.90;0.83;;;;;;;;;;4950268;29;20186;-72
2022/01/14 14:55:40;;;;;;;1.60;0.97;;;;;;;;;;4955345;28;20211;-72
2022/01/14 14:58:05;;;;;;;1.03;0.93;;;;;;;;;;4936089;29;20194;-72
2022/01/14 15:00:30;;;;;;;2.73;1.73;;;;;;;;;;4944553;29;20399;-72
2022/01/14 15:02:56;;;;;;;1.30;1.20;;;;;;;;;;4943104;29;20212;-72
2022/01/14 15:05:21;;;;;;;1.90;1.20;;;;;;;;;;4953196;28;20289;-72
2022/01/14 15:07:47;;;;;;;1.30;1.20;;;;;;;;;;4947202;28;20184;-72
2022/01/14 15:10:13;;;;;;;2.07;1.70;;;;;;;;;;4948149;29;20192;-72